^^
Datos históricos de la estación: Murcia-Puente Tocinos
Diario Informe para Junio 8, 2019 Unidades:  Métrico    Inglés   Ambas
Diario Semanal Mensual Anual Configurable
  Máximo: Mínimo: Media:
Temperatura: 25.2 °C 18.3 °C 22.1 °C
Punto de rocio: 16.2 °C 11.1 °C 14 °C
Humedad: 80% 47% 61%
Velocidad viento: 25.6km/h 0.0km/h 10.9km/h
Racha viento: 42.6km/h - -
Viento- - ESE
Presión: 1018.6 hPa 1015.8 hPa -
Precipitación: 0.0 mm    
Historical Graphs
 
 
Tabla de datos para Junio 8, 2019
Hora Temperatura Punto de rocio Presión Viento Velocidad viento Racha viento Humedad Intensidad lluvia(por hora) Nubes
00:04 20.9 °C 15.0 °C 1016.5 hPa NNE 10.3 km/h 11.1 km/h 69% 0.0 mm CLR
00:09 20.8 °C 14.9 °C 1016.5 hPa NE 8.7 km/h 14.8 km/h 69% 0.0 mm CLR
00:14 20.8 °C 15.1 °C 1016.5 hPa NNE 8.7 km/h 13.0 km/h 70% 0.0 mm CLR
00:19 20.8 °C 15.3 °C 1016.6 hPa NE 10.0 km/h 14.8 km/h 71% 0.0 mm CLR
00:24 20.7 °C 15.3 °C 1016.6 hPa NNE 10.0 km/h 13.0 km/h 71% 0.0 mm CLR
00:29 20.7 °C 15.4 °C 1016.6 hPa NNE 8.7 km/h 9.3 km/h 72% 0.0 mm CLR
00:34 20.7 °C 15.4 °C 1016.7 hPa NE 8.7 km/h 9.3 km/h 72% 0.0 mm CLR
00:39 20.6 °C 15.6 °C 1016.7 hPa NE 6.9 km/h 9.3 km/h 73% 0.0 mm CLR
00:44 20.6 °C 15.6 °C 1016.7 hPa NE 6.9 km/h 7.4 km/h 73% 0.0 mm CLR
00:49 20.6 °C 15.6 °C 1016.7 hPa NNE 6.4 km/h 11.1 km/h 73% 0.0 mm CLR
00:54 20.6 °C 15.8 °C 1016.7 hPa ENE 6.4 km/h 7.4 km/h 74% 0.0 mm CLR
00:59 20.6 °C 15.8 °C 1016.7 hPa NNE 5.0 km/h 7.4 km/h 74% 0.0 mm CLR
01:04 20.6 °C 15.8 °C 1016.5 hPa NE 5.0 km/h 9.3 km/h 74% 0.0 mm CLR
01:09 20.6 °C 15.8 °C 1016.5 hPa NE 5.8 km/h 7.4 km/h 74% 0.0 mm CLR
01:14 20.4 °C 15.8 °C 1016.5 hPa NNE 5.8 km/h 7.4 km/h 75% 0.0 mm CLR
01:19 20.3 °C 15.9 °C 1016.6 hPa North 6.9 km/h 14.0 km/h 76% 0.0 mm CLR
01:24 20.2 °C 15.8 °C 1016.6 hPa North 6.9 km/h 14.8 km/h 76% 0.0 mm CLR
01:29 20.1 °C 15.9 °C 1016.6 hPa NNE 6.9 km/h 11.1 km/h 77% 0.0 mm CLR
01:34 20.0 °C 16.1 °C 1016.6 hPa NNE 10.3 km/h 13.0 km/h 78% 0.0 mm CLR
01:39 20.1 °C 16.2 °C 1016.6 hPa NE 9.5 km/h 11.1 km/h 78% 0.0 mm CLR
01:44 20.0 °C 15.8 °C 1016.6 hPa NE 9.5 km/h 13.0 km/h 77% 0.0 mm CLR
01:49 20.0 °C 16.1 °C 1016.7 hPa NE 8.4 km/h 9.5 km/h 78% 0.0 mm CLR
01:54 19.9 °C 15.9 °C 1016.7 hPa NE 8.4 km/h 9.3 km/h 78% 0.0 mm CLR
01:59 19.9 °C 15.9 °C 1016.7 hPa NNE 8.4 km/h 9.3 km/h 78% 0.0 mm CLR
02:04 19.9 °C 15.9 °C 1016.8 hPa NNE 8.4 km/h 9.3 km/h 78% 0.0 mm CLR
02:09 19.9 °C 15.9 °C 1016.8 hPa NNE 6.4 km/h 7.4 km/h 78% 0.0 mm CLR
02:14 19.9 °C 15.9 °C 1016.8 hPa NE 6.4 km/h 9.3 km/h 78% 0.0 mm CLR
02:19 19.8 °C 15.8 °C 1016.9 hPa NNE 5.0 km/h 7.4 km/h 78% 0.0 mm CLR
02:24 19.7 °C 15.8 °C 1016.9 hPa NNW 5.0 km/h 7.4 km/h 78% 0.0 mm CLR
02:29 19.7 °C 15.8 °C 1016.9 hPa NNW 3.9 km/h 5.6 km/h 78% 0.0 mm CLR
02:34 19.7 °C 15.8 °C 1016.9 hPa NNW 3.9 km/h 3.2 km/h 78% 0.0 mm CLR
02:39 19.7 °C 15.8 °C 1016.9 hPa NNW 2.3 km/h 4.7 km/h 78% 0.0 mm CLR
02:44 19.7 °C 15.8 °C 1016.9 hPa NNW 2.3 km/h 3.2 km/h 78% 0.0 mm CLR
02:49 19.7 °C 15.9 °C 1016.9 hPa Calm   7.4 km/h 79% 0.0 mm CLR
02:54 19.7 °C 15.9 °C 1016.9 hPa Calm     79% 0.0 mm CLR
02:59 19.7 °C 15.9 °C 1016.9 hPa Calm     79% 0.0 mm CLR
03:04 19.7 °C 15.9 °C 1016.8 hPa Calm     79% 0.0 mm CLR
03:09 19.6 °C 15.8 °C 1016.8 hPa Calm   3.9 km/h 79% 0.0 mm CLR
03:14 19.6 °C 16.1 °C 1016.8 hPa Calm   3.7 km/h 80% 0.0 mm CLR
03:19 19.6 °C 16.1 °C 1016.7 hPa WSW 2.3 km/h   80% 0.0 mm CLR
03:24 19.6 °C 16.1 °C 1016.7 hPa WSW 2.3 km/h   80% 0.0 mm CLR
03:29 19.6 °C 16.1 °C 1016.7 hPa Calm   3.7 km/h 80% 0.0 mm CLR
03:34 19.7 °C 16.2 °C 1016.6 hPa Calm     80% 0.0 mm CLR
03:39 19.7 °C 16.2 °C 1016.6 hPa Calm     80% 0.0 mm CLR
03:44 19.7 °C 16.2 °C 1016.6 hPa Calm   2.3 km/h 80% 0.0 mm CLR
03:49 19.7 °C 15.9 °C 1016.5 hPa Calm   5.6 km/h 79% 0.0 mm CLR
03:54 19.7 °C 15.9 °C 1016.5 hPa Calm   3.7 km/h 79% 0.0 mm CLR
03:59 19.8 °C 16.1 °C 1016.5 hPa West 2.3 km/h   79% 0.0 mm CLR
04:04 19.8 °C 16.1 °C 1016.4 hPa West 2.3 km/h   79% 0.0 mm CLR
04:09 19.8 °C 16.1 °C 1016.4 hPa Calm   5.6 km/h 79% 0.0 mm CLR
04:14 19.8 °C 15.8 °C 1016.4 hPa Calm   3.7 km/h 78% 0.0 mm CLR
04:19 19.8 °C 15.7 °C 1016.4 hPa SE 3.2 km/h 5.6 km/h 77% 0.0 mm CLR
04:24 19.8 °C 15.2 °C 1016.4 hPa SE 3.2 km/h 7.4 km/h 75% 0.0 mm CLR
04:29 19.7 °C 14.9 °C 1016.4 hPa ESE 4.7 km/h 9.3 km/h 74% 0.0 mm CLR
04:34 19.5 °C 14.7 °C 1016.8 hPa SSE 4.7 km/h 7.6 km/h 74% 0.0 mm CLR
04:39 19.3 °C 14.6 °C 1016.8 hPa SSE 5.8 km/h 7.4 km/h 74% 0.0 mm CLR
04:44 19.2 °C 14.4 °C 1016.8 hPa SSW 5.8 km/h 13.0 km/h 74% 0.0 mm CLR
04:49 19.1 °C 14.2 °C 1016.6 hPa SSW 6.9 km/h 7.4 km/h 73% 0.0 mm CLR
04:54 19.2 °C 14.2 °C 1016.6 hPa South 6.9 km/h 8.7 km/h 73% 0.0 mm CLR
04:59 19.2 °C 14.2 °C 1016.6 hPa South 4.7 km/h 5.6 km/h 73% 0.0 mm CLR
05:04 19.3 °C 14.1 °C 1016.6 hPa SSE 4.7 km/h 7.4 km/h 72% 0.0 mm CLR
05:09 19.3 °C 13.9 °C 1016.6 hPa South 2.9 km/h 5.8 km/h 71% 0.0 mm CLR
05:14 19.3 °C 13.9 °C 1016.6 hPa South 2.9 km/h 7.4 km/h 71% 0.0 mm CLR
05:19 19.3 °C 13.7 °C 1016.7 hPa South 3.9 km/h 1.9 km/h 70% 0.0 mm CLR
05:24 19.3 °C 13.4 °C 1016.7 hPa South 3.9 km/h   69% 0.0 mm CLR
05:29 19.2 °C 13.4 °C 1016.7 hPa Calm   3.7 km/h 69% 0.0 mm CLR
05:34 19.2 °C 13.2 °C 1016.7 hPa Calm   3.9 km/h 68% 0.0 mm CLR
05:39 19.2 °C 13.2 °C 1016.7 hPa SSE 2.9 km/h 5.6 km/h 68% 0.0 mm CLR
05:44 19.1 °C 13.3 °C 1016.7 hPa SW 2.9 km/h 5.6 km/h 69% 0.0 mm CLR
05:49 19.1 °C 13.7 °C 1016.8 hPa SW 2.9 km/h 3.7 km/h 71% 0.0 mm CLR
05:54 19.0 °C 13.6 °C 1016.8 hPa SW 2.9 km/h   71% 0.0 mm CLR
05:59 18.8 °C 12.8 °C 1016.8 hPa ENE 2.3 km/h 3.7 km/h 68% 0.0 mm CLR
06:04 18.7 °C 12.7 °C 1017.0 hPa ENE 2.3 km/h   68% 0.0 mm CLR
06:09 18.6 °C 12.3 °C 1017.0 hPa Calm     67% 0.0 mm CLR
06:14 18.5 °C 12.3 °C 1017.0 hPa Calm   3.9 km/h 67% 0.0 mm CLR
06:19 18.5 °C 12.5 °C 1016.9 hPa SSE 2.9 km/h 4.7 km/h 68% 0.0 mm CLR
06:24 18.5 °C 12.3 °C 1016.9 hPa SSE 2.9 km/h 7.4 km/h 67% 0.0 mm CLR
06:29 18.5 °C 12.0 °C 1016.9 hPa SE 3.2 km/h 3.7 km/h 66% 0.0 mm CLR
06:34 18.5 °C 12.0 °C 1017.0 hPa SE 3.2 km/h 5.8 km/h 66% 0.0 mm CLR
06:39 18.5 °C 12.7 °C 1017.0 hPa SW 2.9 km/h 5.6 km/h 69% 0.0 mm CLR
06:44 18.4 °C 12.4 °C 1017.0 hPa NNE 2.9 km/h 4.7 km/h 68% 0.0 mm CLR
06:49 18.3 °C 12.5 °C 1017.2 hPa NNE 2.9 km/h 4.7 km/h 69% 0.0 mm CLR
06:54 18.3 °C 12.7 °C 1017.2 hPa WSW 2.9 km/h 7.4 km/h 70% 0.0 mm CLR
06:59 18.3 °C 12.5 °C 1017.2 hPa North 3.2 km/h 3.7 km/h 69% 0.0 mm CLR
07:04 18.3 °C 12.5 °C 1017.4 hPa NNW 3.2 km/h   69% 0.0 mm CLR
07:09 18.3 °C 12.3 °C 1017.4 hPa NNW 2.3 km/h 5.6 km/h 68% 0.0 mm CLR
07:14 18.3 °C 12.5 °C 1017.4 hPa West 2.3 km/h 5.6 km/h 69% 0.0 mm CLR
07:19 18.3 °C 12.5 °C 1017.4 hPa WSW 2.9 km/h 7.4 km/h 69% 0.0 mm CLR
07:24 18.4 °C 12.6 °C 1017.4 hPa WSW 2.9 km/h 5.6 km/h 69% 0.0 mm CLR
07:29 18.4 °C 12.4 °C 1017.4 hPa WSW 3.2 km/h 5.6 km/h 68% 0.0 mm CLR
07:34 18.6 °C 12.3 °C 1017.5 hPa ENE 3.2 km/h 5.6 km/h 67% 0.0 mm CLR
07:39 18.7 °C 12.4 °C 1017.5 hPa ESE 2.3 km/h 5.6 km/h 67% 0.0 mm CLR
07:44 18.7 °C 12.4 °C 1017.5 hPa SE 2.3 km/h 6.4 km/h 67% 0.0 mm CLR
07:49 18.7 °C 12.4 °C 1017.5 hPa SSE 3.9 km/h 7.4 km/h 67% 0.0 mm CLR
07:54 18.8 °C 12.6 °C 1017.5 hPa South 3.9 km/h 10.0 km/h 67% 0.0 mm CLR
07:59 18.8 °C 12.6 °C 1017.5 hPa SE 5.0 km/h 7.4 km/h 67% 0.0 mm CLR
08:04 19.0 °C 12.5 °C 1017.8 hPa SE 5.0 km/h 8.4 km/h 66% 0.0 mm CLR
08:09 19.1 °C 12.1 °C 1017.8 hPa SW 5.0 km/h 9.3 km/h 64% 0.0 mm CLR
08:14 19.3 °C 11.8 °C 1017.8 hPa South 5.0 km/h 7.4 km/h 62% 0.0 mm CLR
08:19 19.3 °C 11.6 °C 1017.8 hPa South 6.4 km/h 11.1 km/h 61% 0.0 mm CLR
08:24 19.4 °C 11.7 °C 1017.8 hPa South 6.4 km/h 9.3 km/h 61% 0.0 mm CLR
08:29 19.6 °C 11.6 °C 1017.8 hPa South 6.4 km/h 9.3 km/h 60% 0.0 mm CLR
08:34 19.6 °C 11.6 °C 1017.9 hPa SSW 6.4 km/h 9.5 km/h 60% 0.0 mm CLR
08:39 19.7 °C 11.4 °C 1017.9 hPa SSW 6.9 km/h 9.3 km/h 59% 0.0 mm CLR
08:44 19.8 °C 11.6 °C 1017.9 hPa SW 6.9 km/h 13.0 km/h 59% 0.0 mm CLR
08:49 19.8 °C 11.3 °C 1018.1 hPa SSW 8.4 km/h 13.0 km/h 58% 0.0 mm CLR
08:54 19.9 °C 11.1 °C 1018.1 hPa SSW 8.4 km/h 10.3 km/h 57% 0.0 mm CLR
08:59 20.1 °C 11.3 °C 1018.1 hPa SW 8.7 km/h 13.0 km/h 57% 0.0 mm CLR
09:04 20.3 °C 11.2 °C 1018.1 hPa SSW 8.7 km/h 10.0 km/h 56% 0.0 mm CLR
09:09 20.4 °C 11.1 °C 1018.1 hPa South 6.9 km/h 9.3 km/h 55% 0.0 mm CLR
09:14 20.8 °C 11.4 °C 1018.1 hPa SSW 6.9 km/h 11.9 km/h 55% 0.0 mm CLR
09:19 21.1 °C 11.4 °C 1018.3 hPa East 5.0 km/h 8.4 km/h 54% 0.0 mm CLR
09:24 21.2 °C 11.2 °C 1018.3 hPa South 5.0 km/h 5.6 km/h 53% 0.0 mm CLR
09:29 21.4 °C 11.4 °C 1018.3 hPa SSE 5.8 km/h 3.7 km/h 53% 0.0 mm CLR
09:34 21.7 °C 11.7 °C 1018.3 hPa SSE 5.8 km/h   53% 0.0 mm CLR
09:39 22.3 °C 11.4 °C 1018.3 hPa Calm   5.6 km/h 50% 0.0 mm CLR
09:44 22.6 °C 11.7 °C 1018.3 hPa Calm   7.6 km/h 50% 0.0 mm CLR
09:49 22.7 °C 11.4 °C 1018.1 hPa SSE 3.9 km/h 5.6 km/h 49% 0.0 mm CLR
09:54 22.8 °C 11.5 °C 1018.1 hPa SSE 3.9 km/h 7.4 km/h 49% 0.0 mm CLR
09:59 23.2 °C 11.9 °C 1018.1 hPa NE 3.2 km/h 9.3 km/h 49% 0.0 mm CLR
10:04 23.3 °C 12.0 °C 1018.2 hPa ENE 3.2 km/h 2.9 km/h 49% 0.0 mm CLR
10:09 23.6 °C 11.9 °C 1018.2 hPa ENE 3.2 km/h 10.0 km/h 48% 0.0 mm CLR
10:14 23.7 °C 12.1 °C 1018.2 hPa SE 3.2 km/h 13.0 km/h 48% 0.0 mm CLR
10:19 23.6 °C 11.9 °C 1018.3 hPa SE 6.9 km/h 13.0 km/h 48% 0.0 mm CLR
10:24 23.5 °C 11.8 °C 1018.3 hPa NNE 6.9 km/h 16.7 km/h 48% 0.0 mm CLR
10:29 23.4 °C 12.1 °C 1018.3 hPa ENE 11.1 km/h 13.0 km/h 49% 0.0 mm CLR
10:34 23.6 °C 11.9 °C 1018.3 hPa NE 11.1 km/h 24.1 km/h 48% 0.0 mm CLR
10:39 23.7 °C 12.1 °C 1018.3 hPa NE 10.3 km/h 22.2 km/h 48% 0.0 mm CLR
10:44 23.9 °C 12.6 °C 1018.3 hPa NE 10.3 km/h 18.5 km/h 49% 0.0 mm CLR
10:49 24.3 °C 12.6 °C 1018.3 hPa NE 10.3 km/h 16.7 km/h 48% 0.0 mm CLR
10:54 24.3 °C 12.3 °C 1018.3 hPa ENE 10.3 km/h 16.7 km/h 47% 0.0 mm CLR
10:59 24.4 °C 12.7 °C 1018.3 hPa NE 10.0 km/h 16.7 km/h 48% 0.0 mm CLR
11:04 24.7 °C 13.3 °C 1018.4 hPa ESE 10.0 km/h 24.1 km/h 49% 0.0 mm CLR
11:09 24.7 °C 14.2 °C 1018.4 hPa East 11.9 km/h 33.3 km/h 52% 0.0 mm CLR
11:14 24.6 °C 14.7 °C 1018.4 hPa NNE 11.9 km/h 33.3 km/h 54% 0.0 mm CLR
11:19 24.3 °C 15.2 °C 1018.4 hPa ENE 18.0 km/h 25.6 km/h 57% 0.0 mm CLR
11:24 24.1 °C 15.1 °C 1018.4 hPa ESE 18.0 km/h 33.3 km/h 57% 0.0 mm CLR
11:29 24.1 °C 14.5 °C 1018.4 hPa ENE 19.8 km/h 25.9 km/h 55% 0.0 mm CLR
11:34 24.2 °C 14.0 °C 1018.5 hPa East 19.8 km/h 24.5 km/h 53% 0.0 mm CLR
11:39 24.2 °C 14.3 °C 1018.5 hPa NE 18.0 km/h 37.0 km/h 54% 0.0 mm CLR
11:44 24.2 °C 13.7 °C 1018.5 hPa NE 18.0 km/h 29.6 km/h 52% 0.0 mm CLR
11:49 24.1 °C 14.5 °C 1018.6 hPa East 21.7 km/h 35.2 km/h 55% 0.0 mm CLR
11:54 24.3 °C 14.9 °C 1018.6 hPa ENE 21.7 km/h 23.7 km/h 56% 0.0 mm CLR
11:59 24.4 °C 14.8 °C 1018.6 hPa East 18.3 km/h 31.5 km/h 55% 0.0 mm CLR
12:04 24.4 °C 15.1 °C 1018.6 hPa NNW 18.3 km/h 35.2 km/h 56% 0.0 mm CLR
12:09 24.3 °C 15.2 °C 1018.6 hPa ENE 18.3 km/h 25.9 km/h 57% 0.0 mm CLR
12:14 24.1 °C 15.6 °C 1018.6 hPa ENE 18.3 km/h 40.7 km/h 59% 0.0 mm CLR
12:19 24.2 °C 15.7 °C 1018.5 hPa East 19.8 km/h 24.1 km/h 59% 0.0 mm CLR
12:24 24.3 °C 15.5 °C 1018.5 hPa ENE 19.8 km/h 27.8 km/h 58% 0.0 mm CLR
12:29 24.0 °C 15.5 °C 1018.5 hPa ENE 18.0 km/h 29.6 km/h 59% 0.0 mm CLR
12:34 24.1 °C 15.6 °C 1018.5 hPa ESE 18.0 km/h 33.3 km/h 59% 0.0 mm CLR
12:39 24.3 °C 15.5 °C 1018.5 hPa NE 17.2 km/h 27.0 km/h 58% 0.0 mm CLR
12:44 24.1 °C 15.3 °C 1018.5 hPa East 17.2 km/h 29.6 km/h 58% 0.0 mm CLR
12:49 24.2 °C 15.2 °C 1018.5 hPa NE 19.8 km/h 23.3 km/h 57% 0.0 mm CLR
12:54 24.3 °C 15.2 °C 1018.5 hPa NE 19.8 km/h 38.9 km/h 57% 0.0 mm CLR
12:59 24.5 °C 15.2 °C 1018.5 hPa East 19.8 km/h 27.8 km/h 56% 0.0 mm CLR
13:04 24.4 °C 15.1 °C 1018.4 hPa East 19.8 km/h 37.0 km/h 56% 0.0 mm CLR
13:09 24.6 °C 15.2 °C 1018.4 hPa East 18.3 km/h 28.2 km/h 56% 0.0 mm CLR
13:14 24.6 °C 15.2 °C 1018.4 hPa NNW 18.3 km/h 27.8 km/h 56% 0.0 mm CLR
13:19 24.6 °C 15.2 °C 1018.3 hPa NNE 16.1 km/h 37.0 km/h 56% 0.0 mm CLR
13:24 24.4 °C 15.1 °C 1018.3 hPa SE 16.1 km/h 33.3 km/h 56% 0.0 mm CLR
13:29 24.4 °C 15.1 °C 1018.3 hPa ENE 20.1 km/h 38.9 km/h 56% 0.0 mm CLR
13:34 24.7 °C 15.1 °C 1018.3 hPa East 20.1 km/h 31.5 km/h 55% 0.0 mm CLR
13:39 24.8 °C 15.2 °C 1018.3 hPa North 19.0 km/h 31.5 km/h 55% 0.0 mm CLR
13:44 25.0 °C 15.1 °C 1018.3 hPa East 19.0 km/h 35.2 km/h 54% 0.0 mm CLR
13:49 25.1 °C 14.8 °C 1018.1 hPa NE 15.6 km/h 31.5 km/h 53% 0.0 mm CLR
13:54 25.2 °C 14.9 °C 1018.1 hPa ENE 15.6 km/h 27.0 km/h 53% 0.0 mm CLR
13:59 24.9 °C 14.7 °C 1018.1 hPa ENE 19.8 km/h 29.6 km/h 53% 0.0 mm CLR
14:04 24.8 °C 14.8 °C 1018.0 hPa NE 19.8 km/h 33.3 km/h 54% 0.0 mm CLR
14:09 24.8 °C 14.8 °C 1018.0 hPa NE 19.8 km/h 33.3 km/h 54% 0.0 mm CLR
14:14 24.8 °C 14.8 °C 1018.0 hPa NE 19.8 km/h 40.7 km/h 54% 0.0 mm CLR
14:19 24.7 °C 15.1 °C 1017.8 hPa NE 20.9 km/h 35.2 km/h 55% 0.0 mm CLR
14:24 24.8 °C 14.8 °C 1017.8 hPa NE 20.9 km/h 30.9 km/h 54% 0.0 mm CLR
14:29 24.9 °C 15.2 °C 1017.8 hPa East 18.0 km/h 27.8 km/h 55% 0.0 mm CLR
14:34 24.8 °C 15.2 °C 1017.8 hPa NNE 18.0 km/h 40.7 km/h 55% 0.0 mm CLR
14:39 24.4 °C 15.1 °C 1017.8 hPa North 22.0 km/h 35.2 km/h 56% 0.0 mm CLR
14:44 24.4 °C 15.1 °C 1017.8 hPa NNE 22.0 km/h 38.9 km/h 56% 0.0 mm CLR
14:49 24.6 °C 15.5 °C 1017.7 hPa NE 20.9 km/h 29.6 km/h 57% 0.0 mm CLR
14:54 24.8 °C 15.4 °C 1017.7 hPa ENE 20.9 km/h 27.8 km/h 56% 0.0 mm CLR
14:59 24.7 °C 15.3 °C 1017.7 hPa NNE 19.0 km/h 38.9 km/h 56% 0.0 mm CLR
15:04 24.6 °C 15.5 °C 1017.5 hPa NNE 19.0 km/h 29.1 km/h 57% 0.0 mm CLR
15:09 24.6 °C 15.2 °C 1017.5 hPa NE 20.1 km/h 38.9 km/h 56% 0.0 mm CLR
15:14 24.4 °C 15.3 °C 1017.5 hPa East 20.1 km/h 37.0 km/h 57% 0.0 mm CLR
15:19 24.5 °C 15.4 °C 1017.3 hPa ENE 19.8 km/h 33.5 km/h 57% 0.0 mm CLR
15:24 24.3 °C 15.5 °C 1017.3 hPa NE 19.8 km/h 33.3 km/h 58% 0.0 mm CLR
15:29 24.4 °C 15.6 °C 1017.3 hPa ESE 23.3 km/h 24.1 km/h 58% 0.0 mm CLR
15:34 24.6 °C 15.2 °C 1017.3 hPa NE 23.3 km/h 32.8 km/h 56% 0.0 mm CLR
15:39 24.3 °C 15.2 °C 1017.3 hPa ESE 20.1 km/h 31.5 km/h 57% 0.0 mm CLR
15:44 24.4 °C 15.3 °C 1017.3 hPa ENE 20.1 km/h 29.6 km/h 57% 0.0 mm CLR
15:49 24.6 °C 15.5 °C 1017.1 hPa NE 18.3 km/h 31.5 km/h 57% 0.0 mm CLR
15:54 24.6 °C 14.7 °C 1017.1 hPa NNE 18.3 km/h 33.3 km/h 54% 0.0 mm CLR
15:59 24.7 °C 14.8 °C 1017.1 hPa NE 19.8 km/h 32.3 km/h 54% 0.0 mm CLR
16:04 24.3 °C 14.7 °C 1017.1 hPa NNE 19.8 km/h 42.6 km/h 55% 0.0 mm CLR
16:09 24.4 °C 14.8 °C 1017.1 hPa NNE 25.1 km/h 37.0 km/h 55% 0.0 mm CLR
16:14 24.6 °C 14.9 °C 1017.1 hPa NNE 25.1 km/h 35.2 km/h 55% 0.0 mm CLR
16:19 24.6 °C 14.9 °C 1016.9 hPa NE 22.0 km/h 35.2 km/h 55% 0.0 mm CLR
16:24 24.5 °C 15.2 °C 1016.9 hPa NNE 22.0 km/h 29.6 km/h 56% 0.0 mm CLR
16:29 24.5 °C 15.4 °C 1016.9 hPa East 20.9 km/h 27.8 km/h 57% 0.0 mm CLR
16:34 24.6 °C 15.2 °C 1016.9 hPa NNE 20.9 km/h 27.8 km/h 56% 0.0 mm CLR
16:39 24.6 °C 15.5 °C 1016.9 hPa NE 18.3 km/h 24.1 km/h 57% 0.0 mm CLR
16:44 24.6 °C 14.9 °C 1016.9 hPa North 18.3 km/h 40.7 km/h 55% 0.0 mm CLR
16:49 24.3 °C 14.9 °C 1016.7 hPa East 19.8 km/h 31.7 km/h 56% 0.0 mm CLR
16:54 24.3 °C 14.9 °C 1016.7 hPa ENE 19.8 km/h 35.2 km/h 56% 0.0 mm CLR
16:59 24.2 °C 14.6 °C 1016.7 hPa NNE 25.1 km/h 37.0 km/h 55% 0.0 mm CLR
17:04 24.2 °C 14.9 °C 1016.5 hPa ENE 25.1 km/h 29.6 km/h 56% 0.0 mm CLR
17:09 24.3 °C 14.7 °C 1016.5 hPa NE 24.5 km/h 38.9 km/h 55% 0.0 mm CLR
17:14 24.2 °C 14.6 °C 1016.5 hPa NNE 24.5 km/h 42.6 km/h 55% 0.0 mm CLR
17:19 24.2 °C 14.6 °C 1016.5 hPa ENE 25.6 km/h 37.0 km/h 55% 0.0 mm CLR
17:24 24.1 °C 14.8 °C 1016.5 hPa North 25.6 km/h 33.3 km/h 56% 0.0 mm CLR
17:29 24.4 °C 14.8 °C 1016.5 hPa NNE 23.7 km/h 33.3 km/h 55% 0.0 mm CLR
17:34 24.3 °C 14.7 °C 1016.3 hPa NE 23.7 km/h 40.7 km/h 55% 0.0 mm CLR
17:39 24.3 °C 14.9 °C 1016.3 hPa NE 22.5 km/h 35.2 km/h 56% 0.0 mm CLR
17:44 24.2 °C 14.6 °C 1016.3 hPa NE 22.5 km/h 29.8 km/h 55% 0.0 mm CLR
17:49 24.1 °C 14.8 °C 1016.3 hPa NE 23.3 km/h 38.9 km/h 56% 0.0 mm CLR
17:54 24.1 °C 14.8 °C 1016.3 hPa NNE 23.3 km/h 33.3 km/h 56% 0.0 mm CLR
17:59 23.9 °C 14.6 °C 1016.3 hPa ENE 25.1 km/h 31.5 km/h 56% 0.0 mm CLR
18:04 23.9 °C 14.6 °C 1016.2 hPa NE 25.1 km/h 35.2 km/h 56% 0.0 mm CLR
18:09 23.9 °C 14.9 °C 1016.2 hPa NE 24.5 km/h 37.0 km/h 57% 0.0 mm CLR
18:14 24.0 °C 14.7 °C 1016.2 hPa NNE 24.5 km/h 29.8 km/h 56% 0.0 mm CLR
18:19 24.2 °C 14.9 °C 1016.2 hPa NE 23.3 km/h 40.7 km/h 56% 0.0 mm CLR
18:24 24.3 °C 14.7 °C 1016.2 hPa NE 23.3 km/h 34.3 km/h 55% 0.0 mm CLR
18:29 24.2 °C 14.6 °C 1016.2 hPa NNE 20.9 km/h 37.0 km/h 55% 0.0 mm CLR
18:34 24.1 °C 14.5 °C 1016.2 hPa NE 20.9 km/h 31.5 km/h 55% 0.0 mm CLR
18:39 24.2 °C 14.3 °C 1016.2 hPa East 22.0 km/h 25.9 km/h 54% 0.0 mm CLR
18:44 24.3 °C 14.4 °C 1016.2 hPa ESE 22.0 km/h 27.8 km/h 54% 0.0 mm CLR
18:49 24.2 °C 14.3 °C 1016.3 hPa ENE 18.3 km/h 29.6 km/h 54% 0.0 mm CLR
18:54 24.0 °C 14.4 °C 1016.3 hPa NE 18.3 km/h 33.3 km/h 55% 0.0 mm CLR
18:59 24.0 °C 14.1 °C 1016.3 hPa NNE 22.0 km/h 33.3 km/h 54% 0.0 mm CLR
19:04 23.9 °C 14.3 °C 1016.2 hPa NE 22.0 km/h 29.6 km/h 55% 0.0 mm CLR
19:09 23.9 °C 14.3 °C 1016.2 hPa NE 20.1 km/h 22.2 km/h 55% 0.0 mm CLR
19:14 23.9 °C 14.3 °C 1016.2 hPa ENE 20.1 km/h 27.8 km/h 55% 0.0 mm CLR
19:19 23.8 °C 14.2 °C 1016.0 hPa NNE 18.3 km/h 24.1 km/h 55% 0.0 mm CLR
19:24 23.8 °C 14.2 °C 1016.0 hPa NE 18.3 km/h 25.9 km/h 55% 0.0 mm CLR
19:29 23.7 °C 14.1 °C 1016.0 hPa North 19.0 km/h 24.1 km/h 55% 0.0 mm CLR
19:34 23.7 °C 14.1 °C 1016.1 hPa NE 19.0 km/h 20.4 km/h 55% 0.0 mm CLR
19:39 23.8 °C 13.9 °C 1016.1 hPa NNW 16.1 km/h 16.7 km/h 54% 0.0 mm CLR
19:44 23.7 °C 13.6 °C 1016.1 hPa NE 16.1 km/h 27.8 km/h 53% 0.0 mm CLR
19:49 23.6 °C 13.4 °C 1016.1 hPa NE 16.4 km/h 29.6 km/h 53% 0.0 mm CLR
19:54 23.6 °C 13.2 °C 1016.1 hPa ENE 16.4 km/h 25.9 km/h 52% 0.0 mm CLR
19:59 23.5 °C 13.1 °C 1016.1 hPa ENE 17.2 km/h 22.2 km/h 52% 0.0 mm CLR
20:04 23.6 °C 12.9 °C 1016.1 hPa NE 17.2 km/h 22.2 km/h 51% 0.0 mm CLR
20:09 23.6 °C 12.9 °C 1016.1 hPa NNE 14.8 km/h 18.5 km/h 51% 0.0 mm CLR
20:14 23.6 °C 12.6 °C 1016.1 hPa ENE 14.8 km/h 20.4 km/h 50% 0.0 mm CLR
20:19 23.7 °C 12.7 °C 1016.1 hPa NE 13.7 km/h 16.7 km/h 50% 0.0 mm CLR
20:24 23.7 °C 12.3 °C 1016.1 hPa NE 13.7 km/h 18.5 km/h 49% 0.0 mm CLR
20:29 23.8 °C 12.4 °C 1016.1 hPa ENE 13.0 km/h 18.5 km/h 49% 0.0 mm CLR
20:34 23.8 °C 12.4 °C 1015.9 hPa East 13.0 km/h 16.7 km/h 49% 0.0 mm CLR
20:39 23.7 °C 12.3 °C 1015.9 hPa ESE 13.7 km/h 22.2 km/h 49% 0.0 mm CLR
20:44 23.7 °C 12.3 °C 1015.9 hPa East 13.7 km/h 13.0 km/h 49% 0.0 mm CLR
20:49 23.7 °C 12.7 °C 1015.9 hPa NE 9.5 km/h 11.1 km/h 50% 0.0 mm CLR
20:54 23.6 °C 12.6 °C 1015.9 hPa East 9.5 km/h 8.7 km/h 50% 0.0 mm CLR
20:59 23.6 °C 12.6 °C 1015.9 hPa NE 6.9 km/h 11.1 km/h 50% 0.0 mm CLR
21:04 23.4 °C 12.7 °C 1015.8 hPa ENE 6.9 km/h 13.0 km/h 51% 0.0 mm CLR
21:09 23.3 °C 12.6 °C 1015.8 hPa SE 6.9 km/h 9.3 km/h 51% 0.0 mm CLR
21:14 23.3 °C 12.6 °C 1015.8 hPa ESE 6.9 km/h 9.3 km/h 51% 0.0 mm CLR
21:19 23.3 °C 12.6 °C 1015.8 hPa East 5.0 km/h 7.4 km/h 51% 0.0 mm CLR
21:24 23.2 °C 12.5 °C 1015.8 hPa East 5.0 km/h 9.3 km/h 51% 0.0 mm CLR
21:29 23.1 °C 12.4 °C 1015.8 hPa East 6.4 km/h 7.4 km/h 51% 0.0 mm CLR
21:34 23.0 °C 12.3 °C 1015.9 hPa East 6.4 km/h 7.6 km/h 51% 0.0 mm CLR
21:39 22.9 °C 12.2 °C 1015.9 hPa ESE 5.8 km/h 11.1 km/h 51% 0.0 mm CLR
21:44 22.9 °C 12.2 °C 1015.9 hPa SE 5.8 km/h 7.4 km/h 51% 0.0 mm CLR
21:49 23.0 °C 12.3 °C 1016.0 hPa ESE 5.8 km/h 9.3 km/h 51% 0.0 mm CLR
21:54 23.0 °C 12.3 °C 1016.0 hPa ESE 5.8 km/h 7.4 km/h 51% 0.0 mm CLR
21:59 23.0 °C 12.0 °C 1016.0 hPa ESE 5.8 km/h 9.3 km/h 50% 0.0 mm CLR
22:04 22.9 °C 12.2 °C 1016.2 hPa ESE 5.8 km/h 7.4 km/h 51% 0.0 mm CLR
22:09 22.9 °C 12.2 °C 1016.2 hPa ESE 5.0 km/h 7.4 km/h 51% 0.0 mm CLR
22:14 22.9 °C 12.2 °C 1016.2 hPa SE 5.0 km/h 7.4 km/h 51% 0.0 mm CLR
22:19 22.9 °C 12.2 °C 1016.3 hPa ESE 5.0 km/h 9.3 km/h 51% 0.0 mm CLR
22:24 22.8 °C 12.1 °C 1016.3 hPa East 5.0 km/h 9.3 km/h 51% 0.0 mm CLR
22:29 22.7 °C 12.1 °C 1016.3 hPa East 5.8 km/h 7.6 km/h 51% 0.0 mm CLR
22:34 22.6 °C 12.2 °C 1016.7 hPa East 5.8 km/h 7.4 km/h 52% 0.0 mm CLR
22:39 22.5 °C 12.4 °C 1016.7 hPa ENE 5.0 km/h 7.4 km/h 53% 0.0 mm CLR
22:44 22.4 °C 12.3 °C 1016.7 hPa East 5.0 km/h 7.4 km/h 53% 0.0 mm CLR
22:49 22.4 °C 12.6 °C 1016.8 hPa ENE 5.0 km/h 9.3 km/h 54% 0.0 mm CLR
22:54 22.3 °C 12.6 °C 1016.8 hPa East 5.0 km/h 7.4 km/h 54% 0.0 mm CLR
22:59 22.3 °C 12.6 °C 1016.8 hPa ESE 4.7 km/h 5.6 km/h 54% 0.0 mm CLR
23:04 22.3 °C 12.6 °C 1017.1 hPa ESE 4.7 km/h 5.6 km/h 54% 0.0 mm CLR
23:09 22.2 °C 12.4 °C 1017.1 hPa East 3.2 km/h 7.4 km/h 54% 0.0 mm CLR
23:14 22.3 °C 12.6 °C 1017.1 hPa East 3.2 km/h 7.4 km/h 54% 0.0 mm CLR
23:19 22.3 °C 12.6 °C 1017.0 hPa ESE 5.0 km/h 7.4 km/h 54% 0.0 mm CLR
23:24 22.2 °C 12.4 °C 1017.0 hPa East 5.0 km/h 9.3 km/h 54% 0.0 mm CLR
23:29 22.2 °C 12.4 °C 1017.0 hPa ESE 5.8 km/h 6.9 km/h 54% 0.0 mm CLR
23:34 22.2 °C 12.4 °C 1017.0 hPa ESE 5.8 km/h 7.6 km/h 54% 0.0 mm CLR
23:39 22.1 °C 12.3 °C 1017.0 hPa ENE 4.7 km/h 10.0 km/h 54% 0.0 mm CLR
23:44 22.1 °C 12.3 °C 1017.0 hPa ESE 4.7 km/h 7.4 km/h 54% 0.0 mm CLR
23:49 22.0 °C 12.6 °C 1016.8 hPa ENE 4.7 km/h 7.4 km/h 55% 0.0 mm CLR
23:54 21.9 °C 12.4 °C 1016.8 hPa East 4.7 km/h 7.4 km/h 55% 0.0 mm CLR
23:59 21.8 °C 12.6 °C 1016.8 hPa East 5.0 km/h 9.3 km/h 56% 0.0 mm CLR
Murcia-Puente Tocinos, España
Compliments of Weather Underground - 2.75 mb

La estación de MeteoMurcia.com, publica sus datos en los siguientes proyectos:

Weather Underground PWS IMURCIAP2 Meteoclimatic www.awekas.at

W3Counter
Web Analytics